createdAt,value
2022-09-14T00:00:36.309Z,15.39
2022-09-14T00:01:37.296Z,15.38
2022-09-14T00:02:38.368Z,15.39
2022-09-14T00:03:38.862Z,15.38
2022-09-14T00:04:39.674Z,15.36
2022-09-14T00:05:40.553Z,15.36
2022-09-14T00:06:41.481Z,15.36
2022-09-14T00:07:42.341Z,15.36
2022-09-14T00:08:43.222Z,15.35
2022-09-14T00:09:44.106Z,15.36
2022-09-14T00:10:44.988Z,15.36
2022-09-14T00:11:45.874Z,15.35
2022-09-14T00:12:46.802Z,15.36
2022-09-14T00:13:47.808Z,15.36
2022-09-14T00:14:48.187Z,15.38
2022-09-14T00:15:49.071Z,15.39
2022-09-14T00:16:50.035Z,15.39
2022-09-14T00:17:50.918Z,15.41
2022-09-14T00:18:51.835Z,15.41
2022-09-14T00:19:52.690Z,15.43
2022-09-14T00:20:53.574Z,15.44
2022-09-14T00:21:54.468Z,15.44
2022-09-14T00:22:55.352Z,15.44
2022-09-14T00:23:56.234Z,15.44
2022-09-14T00:24:57.157Z,15.46
2022-09-14T00:25:58.006Z,15.44
2022-09-14T00:26:58.899Z,15.46
2022-09-14T00:27:59.782Z,15.44
2022-09-14T00:29:00.665Z,15.46
2022-09-14T00:30:01.561Z,15.44
2022-09-14T00:31:02.473Z,15.44
2022-09-14T00:32:03.426Z,15.43
2022-09-14T00:33:04.274Z,15.43
2022-09-14T00:34:05.264Z,15.43
2022-09-14T00:35:06.073Z,15.41
2022-09-14T00:36:06.962Z,15.39
2022-09-14T00:37:07.901Z,15.39
2022-09-14T00:38:08.741Z,15.39
2022-09-14T00:39:09.631Z,15.38
2022-09-14T00:40:10.571Z,15.35
2022-09-14T00:41:11.453Z,15.32
2022-09-14T00:42:12.339Z,15.29
2022-09-14T00:43:13.276Z,15.27
2022-09-14T00:44:14.111Z,15.23
2022-09-14T00:45:14.992Z,15.23
2022-09-14T00:46:15.936Z,15.19
2022-09-14T00:47:16.779Z,15.20
2022-09-14T00:48:17.656Z,15.19
2022-09-14T00:49:18.560Z,15.17
2022-09-14T00:50:19.442Z,15.14
2022-09-14T00:51:20.309Z,15.16
2022-09-14T00:52:21.237Z,15.14
2022-09-14T00:53:22.113Z,15.13
2022-09-14T00:54:23.016Z,15.13
2022-09-14T00:55:23.925Z,15.10
2022-09-14T00:56:24.821Z,15.07
2022-09-14T00:57:25.721Z,15.06
2022-09-14T00:58:26.608Z,15.06
2022-09-14T00:59:27.500Z,15.06
2022-09-14T01:00:28.403Z,15.03
2022-09-14T01:01:29.337Z,15.07
2022-09-14T01:02:30.305Z,15.07
2022-09-14T01:03:31.159Z,15.07
2022-09-14T01:04:32.061Z,15.07
2022-09-14T01:05:32.942Z,15.10
2022-09-14T01:06:33.883Z,15.10
2022-09-14T01:07:34.755Z,15.13
2022-09-14T01:08:35.648Z,15.14
2022-09-14T01:09:36.551Z,15.17
2022-09-14T01:10:37.455Z,15.17
2022-09-14T01:11:38.384Z,15.19
2022-09-14T01:12:39.271Z,15.20
2022-09-14T01:13:40.161Z,15.20
2022-09-14T01:14:41.065Z,15.21
2022-09-14T01:15:41.965Z,15.23
2022-09-14T01:16:42.963Z,15.21
2022-09-14T01:17:43.356Z,15.25
2022-09-14T01:18:44.257Z,15.23
2022-09-14T01:19:45.142Z,15.27
2022-09-14T01:20:45.997Z,15.27
2022-09-14T01:21:46.899Z,15.27
2022-09-14T01:22:47.783Z,15.25
2022-09-14T01:23:48.681Z,15.28
2022-09-14T01:24:49.559Z,15.27
2022-09-14T01:25:50.437Z,15.28
2022-09-14T01:26:51.330Z,15.25
2022-09-14T01:27:52.214Z,15.28
2022-09-14T01:28:53.098Z,15.28
2022-09-14T01:29:53.982Z,15.29
2022-09-14T01:30:54.878Z,15.29
2022-09-14T01:31:55.826Z,15.29
2022-09-14T01:32:56.647Z,15.29
2022-09-14T01:33:57.539Z,15.29
2022-09-14T01:34:58.432Z,15.31
2022-09-14T01:35:59.295Z,15.29
2022-09-14T01:37:00.205Z,15.32
2022-09-14T01:38:01.085Z,15.31
2022-09-14T01:39:01.968Z,15.31
2022-09-14T01:40:02.938Z,15.29
2022-09-14T01:41:03.797Z,15.28
2022-09-14T01:42:04.692Z,15.28
2022-09-14T01:43:05.590Z,15.28
2022-09-14T01:44:06.466Z,15.23
2022-09-14T01:45:07.346Z,15.23
2022-09-14T01:46:08.333Z,15.23
2022-09-14T01:47:09.186Z,15.20
2022-09-14T01:48:10.067Z,15.19
2022-09-14T01:49:10.964Z,15.19
2022-09-14T01:50:11.854Z,15.14
2022-09-14T01:51:12.718Z,15.14
2022-09-14T01:52:13.614Z,15.13
2022-09-14T01:53:14.499Z,15.13
2022-09-14T01:54:15.383Z,15.10
2022-09-14T01:55:16.281Z,15.11
2022-09-14T01:56:17.153Z,15.13
2022-09-14T01:57:18.046Z,15.13
2022-09-14T01:58:18.930Z,15.11
2022-09-14T01:59:19.816Z,15.11
2022-09-14T02:00:20.707Z,15.10
2022-09-14T02:01:21.645Z,15.11
2022-09-14T02:02:22.234Z,15.07
2022-09-14T02:03:22.759Z,15.09
2022-09-14T02:04:23.642Z,15.09
2022-09-14T02:05:24.621Z,15.11
2022-09-14T02:06:25.419Z,15.10
2022-09-14T02:07:26.328Z,15.10
2022-09-14T02:08:27.206Z,15.10
2022-09-14T02:09:28.084Z,15.09
2022-09-14T02:10:28.968Z,15.09
2022-09-14T02:11:29.851Z,15.07
2022-09-14T02:12:30.744Z,15.07
2022-09-14T02:13:31.641Z,15.06
2022-09-14T02:14:32.511Z,15.07
2022-09-14T02:15:33.387Z,15.06
2022-09-14T02:16:34.384Z,15.03
2022-09-14T02:17:35.217Z,15.03
2022-09-14T02:18:36.098Z,15.03
2022-09-14T02:19:36.995Z,15.02
2022-09-14T02:20:37.917Z,15.01
2022-09-14T02:21:38.762Z,14.99
2022-09-14T02:22:39.645Z,14.96
2022-09-14T02:23:40.530Z,14.95
2022-09-14T02:24:41.412Z,14.92
2022-09-14T02:25:42.302Z,14.91
2022-09-14T02:26:43.182Z,14.88
2022-09-14T02:27:44.066Z,14.89
2022-09-14T02:28:44.954Z,14.89
2022-09-14T02:29:45.837Z,14.88
2022-09-14T02:30:46.722Z,14.88
2022-09-14T02:31:47.682Z,14.86
2022-09-14T02:32:48.530Z,14.88
2022-09-14T02:33:49.516Z,14.88
2022-09-14T02:34:50.367Z,14.91
2022-09-14T02:35:51.462Z,14.91
2022-09-14T02:36:51.774Z,14.89
2022-09-14T02:37:52.670Z,14.92
2022-09-14T02:38:53.544Z,14.92
2022-09-14T02:39:54.446Z,14.95
2022-09-14T02:40:55.312Z,14.95
2022-09-14T02:41:56.206Z,14.96
2022-09-14T02:42:57.090Z,14.96
2022-09-14T02:43:57.986Z,14.96
2022-09-14T02:44:58.864Z,14.95
2022-09-14T02:45:59.742Z,14.95
2022-09-14T02:47:00.698Z,14.95
2022-09-14T02:48:01.525Z,14.92
2022-09-14T02:49:02.407Z,14.89
2022-09-14T02:50:03.303Z,14.92
2022-09-14T02:51:04.193Z,14.91
2022-09-14T02:52:05.068Z,14.91
2022-09-14T02:53:05.953Z,14.91
2022-09-14T02:54:06.833Z,14.89
2022-09-14T02:55:07.718Z,14.89
2022-09-14T02:56:08.610Z,14.88
2022-09-14T02:57:09.498Z,14.88
2022-09-14T02:58:10.380Z,14.88
2022-09-14T02:59:11.262Z,14.84
2022-09-14T03:00:12.147Z,14.86
2022-09-14T03:01:13.125Z,14.84
2022-09-14T03:02:13.630Z,14.83
2022-09-14T03:03:14.492Z,14.80
2022-09-14T03:04:15.374Z,14.80
2022-09-14T03:05:16.260Z,14.75
2022-09-14T03:06:17.163Z,14.75
2022-09-14T03:07:18.028Z,14.75
2022-09-14T03:08:18.921Z,14.75
2022-09-14T03:09:19.802Z,14.73
2022-09-14T03:10:20.680Z,14.75
2022-09-14T03:11:21.565Z,14.75
2022-09-14T03:12:22.456Z,14.77
2022-09-14T03:13:23.341Z,14.78
2022-09-14T03:14:24.241Z,14.78
2022-09-14T03:15:25.114Z,14.78
2022-09-14T03:16:26.079Z,14.78
2022-09-14T03:17:26.940Z,14.80
2022-09-14T03:18:27.823Z,14.80
2022-09-14T03:19:28.706Z,14.80
2022-09-14T03:20:29.602Z,14.81
2022-09-14T03:21:30.496Z,14.80
2022-09-14T03:22:31.371Z,14.78
2022-09-14T03:23:32.255Z,14.78
2022-09-14T03:24:33.140Z,14.78
2022-09-14T03:25:34.024Z,14.80
2022-09-14T03:26:34.919Z,14.77
2022-09-14T03:27:35.802Z,14.80
2022-09-14T03:28:36.692Z,14.80
2022-09-14T03:29:37.568Z,14.80
2022-09-14T03:30:38.470Z,14.80
2022-09-14T03:31:39.438Z,14.78
2022-09-14T03:32:40.334Z,14.77
2022-09-14T03:33:41.206Z,14.77
2022-09-14T03:34:42.089Z,14.75
2022-09-14T03:35:42.976Z,14.70
2022-09-14T03:36:43.899Z,14.68
2022-09-14T03:37:44.774Z,14.65
2022-09-14T03:38:45.668Z,14.64
2022-09-14T03:39:46.582Z,14.64
2022-09-14T03:40:47.435Z,14.62
2022-09-14T03:41:48.319Z,14.62
2022-09-14T03:42:49.213Z,14.61
2022-09-14T03:43:50.217Z,14.60
2022-09-14T03:44:51.082Z,14.58
2022-09-14T03:45:51.954Z,14.58
2022-09-14T03:46:52.904Z,14.58
2022-09-14T03:47:53.764Z,14.58
2022-09-14T03:48:54.647Z,14.58
2022-09-14T03:49:55.540Z,14.60
2022-09-14T03:50:56.427Z,14.60
2022-09-14T03:51:59.772Z,14.60
2022-09-14T03:52:58.289Z,14.61
2022-09-14T03:53:59.173Z,14.62
2022-09-14T03:55:00.054Z,14.62
2022-09-14T03:56:00.940Z,14.64
2022-09-14T03:57:01.863Z,14.65
2022-09-14T03:58:02.735Z,14.68
2022-09-14T03:59:03.617Z,14.64
2022-09-14T04:00:04.503Z,14.64
2022-09-14T04:01:05.388Z,14.68
2022-09-14T04:02:06.369Z,14.64
2022-09-14T04:03:07.346Z,14.65
2022-09-14T04:04:08.171Z,14.64
2022-09-14T04:05:09.043Z,14.62
2022-09-14T04:06:09.932Z,14.60
2022-09-14T04:07:10.939Z,14.60
2022-09-14T04:08:11.738Z,14.58
2022-09-14T04:09:12.623Z,14.57
2022-09-14T04:10:13.514Z,14.60
2022-09-14T04:11:14.388Z,14.57
2022-09-14T04:12:15.272Z,14.60
2022-09-14T04:13:16.154Z,14.58
2022-09-14T04:14:17.031Z,14.61
2022-09-14T04:15:17.922Z,14.61
2022-09-14T04:16:18.872Z,14.61
2022-09-14T04:17:19.721Z,14.60
2022-09-14T04:18:20.605Z,14.60
2022-09-14T04:19:21.491Z,14.60
2022-09-14T04:20:22.377Z,14.60
2022-09-14T04:21:23.257Z,14.61
2022-09-14T04:22:24.169Z,14.61
2022-09-14T04:23:25.031Z,14.61
2022-09-14T04:24:30.026Z,14.61
2022-09-14T04:25:26.793Z,14.62
2022-09-14T04:26:27.619Z,14.61
2022-09-14T04:27:28.512Z,14.61
2022-09-14T04:28:29.399Z,14.61
2022-09-14T04:29:30.274Z,14.62
2022-09-14T04:30:31.159Z,14.62
2022-09-14T04:31:32.073Z,14.62
2022-09-14T04:32:34.595Z,14.64
2022-09-14T04:33:33.570Z,14.64
2022-09-14T04:34:34.439Z,14.64
2022-09-14T04:35:35.320Z,14.68
2022-09-14T04:36:36.202Z,14.68
2022-09-14T04:37:37.114Z,14.69
2022-09-14T04:38:37.979Z,14.69
2022-09-14T04:39:38.872Z,14.70
2022-09-14T04:40:39.745Z,14.72
2022-09-14T04:41:40.628Z,14.70
2022-09-14T04:42:41.523Z,14.72
2022-09-14T04:43:42.404Z,14.73
2022-09-14T04:44:43.289Z,14.72
2022-09-14T04:45:44.198Z,14.72
2022-09-14T04:46:46.813Z,14.73
2022-09-14T04:47:46.003Z,14.73
2022-09-14T04:48:46.885Z,14.73
2022-09-14T04:49:47.768Z,14.72
2022-09-14T04:50:48.608Z,14.69
2022-09-14T04:51:49.535Z,14.68
2022-09-14T04:52:50.408Z,14.68
2022-09-14T04:53:51.305Z,14.65
2022-09-14T04:54:52.159Z,14.62
2022-09-14T04:55:52.998Z,14.62
2022-09-14T04:56:53.838Z,14.61
2022-09-14T04:57:54.687Z,14.58
2022-09-14T04:58:55.507Z,14.57
2022-09-14T04:59:56.333Z,14.58
2022-09-14T05:00:57.153Z,14.58
2022-09-14T05:01:58.032Z,14.58
2022-09-14T05:02:58.954Z,14.58
2022-09-14T05:03:59.792Z,14.58
2022-09-14T05:05:00.610Z,14.58
2022-09-14T05:06:01.439Z,14.58
2022-09-14T05:07:02.280Z,14.58
2022-09-14T05:08:03.127Z,14.61
2022-09-14T05:09:03.946Z,14.62
2022-09-14T05:10:04.787Z,14.61
2022-09-14T05:11:05.604Z,14.61
2022-09-14T05:12:06.445Z,14.61
2022-09-14T05:13:07.275Z,14.61
2022-09-14T05:14:08.103Z,14.61
2022-09-14T05:15:08.933Z,14.62
2022-09-14T05:16:09.844Z,14.61
2022-09-14T05:17:10.614Z,14.64
2022-09-14T05:18:11.443Z,14.64
2022-09-14T05:19:12.274Z,14.64
2022-09-14T05:20:13.104Z,14.65
2022-09-14T05:21:13.945Z,14.65
2022-09-14T05:22:14.791Z,14.64
2022-09-14T05:23:15.724Z,14.65
2022-09-14T05:24:16.472Z,14.65
2022-09-14T05:25:17.303Z,14.65
2022-09-14T05:26:18.134Z,14.65
2022-09-14T05:27:18.962Z,14.65
2022-09-14T05:28:19.791Z,14.69
2022-09-14T05:29:20.626Z,14.69
2022-09-14T05:30:21.443Z,14.69
2022-09-14T05:31:22.348Z,14.69
2022-09-14T05:32:23.140Z,14.72
2022-09-14T05:33:23.971Z,14.72
2022-09-14T05:34:24.798Z,14.73
2022-09-14T05:35:25.658Z,14.77
2022-09-14T05:36:26.462Z,14.78
2022-09-14T05:37:27.301Z,14.78
2022-09-14T05:38:28.149Z,14.81
2022-09-14T05:39:28.960Z,14.83
2022-09-14T05:40:29.844Z,14.83
2022-09-14T05:41:30.655Z,14.84
2022-09-14T05:42:31.500Z,14.84
2022-09-14T05:43:32.355Z,14.88
2022-09-14T05:44:33.162Z,14.88
2022-09-14T05:45:34.056Z,14.88
2022-09-14T05:46:34.974Z,14.88
2022-09-14T05:47:38.967Z,14.86
2022-09-14T05:48:36.628Z,14.84
2022-09-14T05:49:37.464Z,14.83
2022-09-14T05:50:38.292Z,14.81
2022-09-14T05:51:39.160Z,14.78
2022-09-14T05:52:39.964Z,14.78
2022-09-14T05:53:40.808Z,14.80
2022-09-14T05:54:41.634Z,14.81
2022-09-14T05:55:42.457Z,14.80
2022-09-14T05:56:43.314Z,14.81
2022-09-14T05:57:44.131Z,14.81
2022-09-14T05:58:44.959Z,14.80
2022-09-14T05:59:45.790Z,14.83
2022-09-14T06:00:46.618Z,14.80
2022-09-14T06:01:47.528Z,14.84
2022-09-14T06:02:48.318Z,14.83
2022-09-14T06:03:49.249Z,14.84
2022-09-14T06:04:50.197Z,14.83
2022-09-14T06:05:51.002Z,14.84
2022-09-14T06:07:14.568Z,14.84
2022-09-14T06:07:53.556Z,14.83
2022-09-14T06:08:53.403Z,14.83
2022-09-14T06:09:54.205Z,14.84
2022-09-14T06:10:55.039Z,14.84
2022-09-14T06:11:55.874Z,14.83
2022-09-14T06:12:56.704Z,14.84
2022-09-14T06:13:57.537Z,14.84
2022-09-14T06:14:58.374Z,14.84
2022-09-14T06:15:59.208Z,14.86
2022-09-14T06:17:00.047Z,14.84
2022-09-14T06:18:00.877Z,14.84
2022-09-14T06:19:01.708Z,14.88
2022-09-14T06:20:04.901Z,14.86
2022-09-14T06:21:03.307Z,14.84
2022-09-14T06:22:04.151Z,14.86
2022-09-14T06:23:04.979Z,14.88
2022-09-14T06:24:06.391Z,14.91
2022-09-14T06:25:06.699Z,14.91
2022-09-14T06:26:07.538Z,14.92
2022-09-14T06:27:08.369Z,14.95
2022-09-14T06:28:09.198Z,14.95
2022-09-14T06:29:10.028Z,14.98
2022-09-14T06:30:10.856Z,14.98
2022-09-14T06:31:11.694Z,14.99
2022-09-14T06:32:12.559Z,15.01
2022-09-14T06:33:13.402Z,15.01
2022-09-14T06:34:14.232Z,15.06
2022-09-14T06:35:15.077Z,15.09
2022-09-14T06:36:15.969Z,15.16
2022-09-14T06:37:16.797Z,15.17
2022-09-14T06:38:17.592Z,15.23
2022-09-14T06:39:18.442Z,15.27
2022-09-14T06:40:19.297Z,15.31
2022-09-14T06:41:20.089Z,15.31
2022-09-14T06:42:20.920Z,15.35
2022-09-14T06:43:21.803Z,15.36
2022-09-14T06:44:22.590Z,15.36
2022-09-14T06:45:23.422Z,15.38
2022-09-14T06:46:24.259Z,15.39
2022-09-14T06:47:25.088Z,15.41
2022-09-14T06:48:25.971Z,15.39
2022-09-14T06:49:26.761Z,15.41
2022-09-14T06:50:27.600Z,15.41
2022-09-14T06:51:28.433Z,15.46
2022-09-14T06:52:33.563Z,15.47
2022-09-14T06:53:30.074Z,15.49
2022-09-14T06:54:30.949Z,15.49
2022-09-14T06:55:31.746Z,15.50
2022-09-14T06:56:32.591Z,15.51
2022-09-14T06:57:33.417Z,15.53
2022-09-14T06:58:34.241Z,15.57
2022-09-14T06:59:35.072Z,15.57
2022-09-14T07:00:35.956Z,15.60
2022-09-14T07:01:36.761Z,15.60
2022-09-14T07:02:37.613Z,15.67
2022-09-14T07:03:38.413Z,15.67
2022-09-14T07:04:39.239Z,15.67
2022-09-14T07:05:40.069Z,15.68
2022-09-14T07:06:40.975Z,15.71
2022-09-14T07:07:41.741Z,15.72
2022-09-14T07:08:42.571Z,15.76
2022-09-14T07:09:43.500Z,15.78
2022-09-14T07:10:44.251Z,15.80
2022-09-14T07:11:45.083Z,15.83
2022-09-14T07:12:45.966Z,15.84
2022-09-14T07:13:46.758Z,15.86
2022-09-14T07:14:47.587Z,15.87
2022-09-14T07:15:48.412Z,15.90
2022-09-14T07:16:49.266Z,15.92
2022-09-14T07:17:50.098Z,15.92
2022-09-14T07:18:50.993Z,15.94
2022-09-14T07:19:51.773Z,15.97
2022-09-14T07:20:52.603Z,15.97
2022-09-14T07:21:53.435Z,16.02
2022-09-14T07:22:54.270Z,16.08
2022-09-14T07:23:55.095Z,16.12
2022-09-14T07:24:55.985Z,16.20
2022-09-14T07:25:56.759Z,16.25
2022-09-14T07:26:57.601Z,16.41
2022-09-14T07:27:58.455Z,16.48
2022-09-14T07:28:59.261Z,16.61
2022-09-14T07:30:00.094Z,16.75
2022-09-14T07:31:01.033Z,16.98
2022-09-14T07:32:01.848Z,17.28
2022-09-14T07:33:02.679Z,17.48
2022-09-14T07:34:03.507Z,17.63
2022-09-14T07:35:04.339Z,17.71
2022-09-14T07:36:05.161Z,17.77
2022-09-14T07:37:06.066Z,17.77
2022-09-14T07:38:06.851Z,17.79
2022-09-14T07:39:07.693Z,17.82
2022-09-14T07:40:08.680Z,17.97
2022-09-14T07:41:09.453Z,18.07
2022-09-14T07:42:10.312Z,18.21
2022-09-14T07:43:11.204Z,18.42
2022-09-14T07:44:11.977Z,18.60
2022-09-14T07:45:12.807Z,18.81
2022-09-14T07:46:13.660Z,18.99
2022-09-14T07:47:14.474Z,19.16
2022-09-14T07:48:15.294Z,19.26
2022-09-14T07:49:16.176Z,19.31
2022-09-14T07:50:16.967Z,19.40
2022-09-14T07:51:17.798Z,19.56
2022-09-14T07:52:18.639Z,19.71
2022-09-14T07:53:19.472Z,19.77
2022-09-14T07:54:20.298Z,19.88
2022-09-14T07:55:21.174Z,20.01
2022-09-14T07:56:21.977Z,20.02
2022-09-14T07:57:39.409Z,20.11
2022-09-14T07:58:24.533Z,20.13
2022-09-14T07:59:35.650Z,20.28
2022-09-14T08:00:26.090Z,20.24
2022-09-14T08:01:25.972Z,20.21
2022-09-14T08:02:26.813Z,20.24
2022-09-14T08:03:27.725Z,20.33
2022-09-14T08:04:28.559Z,20.31
2022-09-14T08:05:29.385Z,20.26
2022-09-14T08:06:30.227Z,20.32
2022-09-14T08:07:31.119Z,20.41
2022-09-14T08:08:31.907Z,20.43
2022-09-14T08:09:32.734Z,20.54
2022-09-14T08:10:33.713Z,20.51
2022-09-14T08:11:34.473Z,20.48
2022-09-14T08:12:35.315Z,20.47
2022-09-14T08:13:36.208Z,20.54
2022-09-14T08:14:36.987Z,20.57
2022-09-14T08:15:37.817Z,20.55
2022-09-14T08:16:39.006Z,20.52
2022-09-14T08:17:39.414Z,20.55
2022-09-14T08:18:40.269Z,20.57
2022-09-14T08:19:41.126Z,20.59
2022-09-14T08:20:41.926Z,20.64
2022-09-14T08:21:46.558Z,20.69
2022-09-14T08:22:43.693Z,20.74
2022-09-14T08:23:44.520Z,20.82
2022-09-14T08:24:45.354Z,20.87
2022-09-14T08:25:46.230Z,20.94
2022-09-14T08:26:47.029Z,20.99
2022-09-14T08:27:47.866Z,21.09
2022-09-14T08:28:48.795Z,21.14
2022-09-14T08:29:49.589Z,21.22
2022-09-14T08:30:50.419Z,21.27
2022-09-14T08:31:51.345Z,21.31
2022-09-14T08:32:52.121Z,21.32
2022-09-14T08:33:52.959Z,21.38
2022-09-14T08:34:53.780Z,21.44
2022-09-14T08:35:57.852Z,21.49
2022-09-14T08:36:55.312Z,21.52
2022-09-14T08:37:56.191Z,21.59
2022-09-14T08:38:56.988Z,21.65
2022-09-14T08:39:57.869Z,21.67
2022-09-14T08:40:58.719Z,21.68
2022-09-14T08:41:59.528Z,21.67
2022-09-14T08:43:00.382Z,21.68
2022-09-14T08:44:01.262Z,21.68
2022-09-14T08:45:05.190Z,21.69
2022-09-14T08:46:03.919Z,21.72
2022-09-14T08:47:03.700Z,21.77
2022-09-14T08:48:04.543Z,21.82
2022-09-14T08:49:05.361Z,21.84
2022-09-14T08:50:06.267Z,21.88
2022-09-14T08:51:07.052Z,21.91
2022-09-14T08:52:07.879Z,21.98
2022-09-14T08:53:08.723Z,22.03
2022-09-14T08:54:09.554Z,22.06
2022-09-14T08:55:10.386Z,22.12
2022-09-14T08:56:11.249Z,22.17
2022-09-14T08:57:12.048Z,22.17
2022-09-14T08:58:12.888Z,22.21
2022-09-14T08:59:13.721Z,22.24
2022-09-14T09:00:14.548Z,22.27
2022-09-14T09:01:15.512Z,22.31
2022-09-14T09:02:16.385Z,22.36
2022-09-14T09:03:17.180Z,22.40
2022-09-14T09:04:18.066Z,22.45
2022-09-14T09:05:18.840Z,22.51
2022-09-14T09:06:19.671Z,22.54
2022-09-14T09:07:21.516Z,22.54
2022-09-14T09:08:21.311Z,22.57
2022-09-14T09:09:22.114Z,22.58
2022-09-14T09:10:22.933Z,22.61
2022-09-14T09:11:23.792Z,22.60
2022-09-14T09:12:24.604Z,22.57
2022-09-14T09:13:25.424Z,22.60
2022-09-14T09:14:26.312Z,22.60
2022-09-14T09:15:27.103Z,22.60
2022-09-14T09:16:28.015Z,22.61
2022-09-14T09:17:28.799Z,22.60
2022-09-14T09:18:29.628Z,22.60
2022-09-14T09:19:30.447Z,22.60
2022-09-14T09:20:31.324Z,22.58
2022-09-14T09:21:32.139Z,22.58
2022-09-14T09:22:32.949Z,22.60
2022-09-14T09:23:33.779Z,22.61
2022-09-14T09:24:37.234Z,22.64
2022-09-14T09:25:35.242Z,22.64
2022-09-14T09:26:36.209Z,22.62
2022-09-14T09:27:36.963Z,22.65
2022-09-14T09:28:37.786Z,22.65
2022-09-14T09:29:38.618Z,22.67
2022-09-14T09:30:39.447Z,22.68
2022-09-14T09:31:40.363Z,22.70
2022-09-14T09:32:41.185Z,22.72
2022-09-14T09:33:41.984Z,22.73
2022-09-14T09:34:42.814Z,22.77
2022-09-14T09:35:43.643Z,22.76
2022-09-14T09:36:44.482Z,22.79
2022-09-14T09:37:45.313Z,22.80
2022-09-14T09:38:46.192Z,22.82
2022-09-14T09:39:47.035Z,22.83
2022-09-14T09:40:47.819Z,22.85
2022-09-14T09:41:48.668Z,22.90
2022-09-14T09:42:49.480Z,22.91
2022-09-14T09:43:50.345Z,22.92
2022-09-14T09:44:51.220Z,22.95
2022-09-14T09:45:52.000Z,22.98
2022-09-14T09:46:52.914Z,22.98
2022-09-14T09:47:53.774Z,23.01
2022-09-14T09:48:54.603Z,23.00
2022-09-14T09:49:55.429Z,23.01
2022-09-14T09:50:56.318Z,23.05
2022-09-14T09:51:57.105Z,23.05
2022-09-14T09:52:57.933Z,23.05
2022-09-14T09:53:58.772Z,23.09
2022-09-14T09:54:59.595Z,23.13
2022-09-14T09:56:00.430Z,23.15
2022-09-14T09:57:01.321Z,23.17
2022-09-14T09:58:02.117Z,23.19
2022-09-14T09:59:02.945Z,23.20
2022-09-14T10:00:03.766Z,23.23
2022-09-14T10:01:07.754Z,23.25
2022-09-14T10:02:06.378Z,23.27
2022-09-14T10:03:06.198Z,23.32
2022-09-14T10:04:07.003Z,23.31
2022-09-14T10:05:07.856Z,23.31
2022-09-14T10:06:08.662Z,23.31
2022-09-14T10:07:09.503Z,23.28
2022-09-14T10:08:11.658Z,23.28
2022-09-14T10:09:11.094Z,23.28
2022-09-14T10:10:11.903Z,23.27
2022-09-14T10:11:12.720Z,23.25
2022-09-14T10:12:13.583Z,23.28
2022-09-14T10:13:14.405Z,23.25
2022-09-14T10:14:15.237Z,23.27
2022-09-14T10:15:16.122Z,23.27
2022-09-14T10:16:17.075Z,23.28
2022-09-14T10:17:17.891Z,23.33
2022-09-14T10:18:18.721Z,23.36
2022-09-14T10:19:19.551Z,23.39
2022-09-14T10:20:20.383Z,23.38
2022-09-14T10:21:21.261Z,23.42
2022-09-14T10:22:26.352Z,23.47
2022-09-14T10:23:22.961Z,23.51
2022-09-14T10:24:23.790Z,23.53
2022-09-14T10:25:24.626Z,23.58
2022-09-14T10:26:25.450Z,23.65
2022-09-14T10:27:26.420Z,23.69
2022-09-14T10:28:27.166Z,23.73
2022-09-14T10:29:28.016Z,23.78
2022-09-14T10:30:28.848Z,23.84
2022-09-14T10:31:29.741Z,23.85
2022-09-14T10:32:30.616Z,23.90
2022-09-14T10:33:31.500Z,23.95
2022-09-14T10:34:32.293Z,23.95
2022-09-14T10:35:33.120Z,23.93
2022-09-14T10:36:33.952Z,23.91
2022-09-14T10:37:34.790Z,23.93
2022-09-14T10:38:35.619Z,23.93
2022-09-14T10:39:36.498Z,23.93
2022-09-14T10:40:37.291Z,23.94
2022-09-14T10:41:38.119Z,24.00
2022-09-14T10:42:38.987Z,24.03
2022-09-14T10:43:39.791Z,24.06
2022-09-14T10:44:40.611Z,24.06
2022-09-14T10:45:41.590Z,24.09
2022-09-14T10:46:42.480Z,24.06
2022-09-14T10:47:43.305Z,24.06
2022-09-14T10:48:44.192Z,24.08
2022-09-14T10:49:44.984Z,24.12
2022-09-14T10:50:45.813Z,24.10
2022-09-14T10:51:46.716Z,24.12
2022-09-14T10:52:47.515Z,24.10
2022-09-14T10:53:48.342Z,24.10
2022-09-14T10:54:49.181Z,24.10
2022-09-14T10:55:50.013Z,24.09
2022-09-14T10:56:50.841Z,24.09
2022-09-14T10:57:51.759Z,24.09
2022-09-14T10:58:52.504Z,24.06
2022-09-14T10:59:53.335Z,24.08
2022-09-14T11:00:54.156Z,24.02
2022-09-14T11:01:55.146Z,24.02
2022-09-14T11:02:56.059Z,23.95
2022-09-14T11:03:56.939Z,23.97
2022-09-14T11:04:57.731Z,23.93
2022-09-14T11:05:58.559Z,23.90
2022-09-14T11:06:59.409Z,23.88
2022-09-14T11:08:00.231Z,23.87
2022-09-14T11:09:01.061Z,23.83
2022-09-14T11:10:01.949Z,23.80
2022-09-14T11:11:02.737Z,23.78
2022-09-14T11:12:03.583Z,23.76
2022-09-14T11:13:04.512Z,23.75
2022-09-14T11:14:05.265Z,23.72
2022-09-14T11:15:06.095Z,23.72
2022-09-14T11:16:07.038Z,23.70
2022-09-14T11:17:07.838Z,23.69
2022-09-14T11:18:08.677Z,23.69
2022-09-14T11:19:09.505Z,23.66
2022-09-14T11:20:10.415Z,23.66
2022-09-14T11:21:11.214Z,23.66
2022-09-14T11:22:12.119Z,23.65
2022-09-14T11:23:12.908Z,23.65
2022-09-14T11:24:13.737Z,23.65
2022-09-14T11:25:14.565Z,23.65
2022-09-14T11:26:15.397Z,23.66
2022-09-14T11:27:16.234Z,23.66
2022-09-14T11:28:17.102Z,23.68
2022-09-14T11:29:17.911Z,23.70
2022-09-14T11:30:18.743Z,23.75
2022-09-14T11:31:19.609Z,23.78
2022-09-14T11:32:22.006Z,23.84
2022-09-14T11:33:21.148Z,23.87
2022-09-14T11:34:22.021Z,23.93
2022-09-14T11:35:22.819Z,23.94
2022-09-14T11:36:23.655Z,23.94
2022-09-14T11:37:24.489Z,23.97
2022-09-14T11:38:25.333Z,23.95
2022-09-14T11:39:26.161Z,23.91
2022-09-14T11:40:27.093Z,23.90
2022-09-14T11:41:27.883Z,23.88
2022-09-14T11:42:28.725Z,23.85
2022-09-14T11:43:29.578Z,23.84
2022-09-14T11:44:30.384Z,23.85
2022-09-14T11:45:31.214Z,23.84
2022-09-14T11:46:32.139Z,23.83
2022-09-14T11:47:32.923Z,23.83
2022-09-14T11:48:49.241Z,23.84
2022-09-14T11:49:35.499Z,23.79
2022-09-14T11:50:35.290Z,23.80
2022-09-14T11:51:36.121Z,23.80
2022-09-14T11:52:37.015Z,23.80
2022-09-14T11:53:37.800Z,23.80
2022-09-14T11:54:39.983Z,23.83
2022-09-14T11:55:39.246Z,23.80
2022-09-14T11:56:40.075Z,23.79
2022-09-14T11:57:40.912Z,23.78
2022-09-14T11:58:41.799Z,23.78
2022-09-14T11:59:42.589Z,23.78
2022-09-14T12:00:43.420Z,23.78
2022-09-14T12:01:44.260Z,23.78
2022-09-14T12:02:45.250Z,23.78
2022-09-14T12:03:49.710Z,23.78
2022-09-14T12:04:47.393Z,23.78
2022-09-14T12:05:47.179Z,23.80
2022-09-14T12:06:48.034Z,23.84
2022-09-14T12:07:48.857Z,23.85
2022-09-14T12:08:49.688Z,23.84
2022-09-14T12:09:50.516Z,23.84
2022-09-14T12:10:51.397Z,23.85
2022-09-14T12:11:52.192Z,23.84
2022-09-14T12:12:53.021Z,23.84
2022-09-14T12:13:53.870Z,23.83
2022-09-14T12:14:54.683Z,23.83
2022-09-14T12:15:55.564Z,23.79
2022-09-14T12:16:56.413Z,23.79
2022-09-14T12:17:57.205Z,23.76
2022-09-14T12:18:58.036Z,23.78
2022-09-14T12:19:58.866Z,23.76
2022-09-14T12:20:59.690Z,23.76
2022-09-14T12:22:00.541Z,23.76
2022-09-14T12:23:01.423Z,23.76
2022-09-14T12:24:02.207Z,23.78
2022-09-14T12:25:03.040Z,23.75
2022-09-14T12:26:03.867Z,23.76
2022-09-14T12:27:04.708Z,23.75
2022-09-14T12:28:05.535Z,23.73
2022-09-14T12:29:06.407Z,23.73
2022-09-14T12:30:07.195Z,23.75
2022-09-14T12:31:08.062Z,23.72
2022-09-14T12:32:08.876Z,23.72
2022-09-14T12:33:09.711Z,23.70
2022-09-14T12:34:10.536Z,23.68
2022-09-14T12:35:11.432Z,23.65
2022-09-14T12:36:12.214Z,23.65
2022-09-14T12:37:13.049Z,23.65
2022-09-14T12:38:13.876Z,23.61
2022-09-14T12:39:14.708Z,23.61
2022-09-14T12:40:15.611Z,23.58
2022-09-14T12:41:16.406Z,23.57
2022-09-14T12:42:17.313Z,23.57
2022-09-14T12:43:18.102Z,23.55
2022-09-14T12:44:18.946Z,23.53
2022-09-14T12:45:19.757Z,23.53
2022-09-14T12:46:20.659Z,23.50
2022-09-14T12:47:21.498Z,23.47
2022-09-14T12:48:22.373Z,23.48
2022-09-14T12:49:23.164Z,23.43
2022-09-14T12:50:23.997Z,23.43
2022-09-14T12:51:24.821Z,23.40
2022-09-14T12:52:25.660Z,23.40
2022-09-14T12:53:26.496Z,23.38
2022-09-14T12:54:27.375Z,23.35
2022-09-14T12:55:28.170Z,23.32
2022-09-14T12:56:28.996Z,23.27
2022-09-14T12:57:29.846Z,23.23
2022-09-14T12:58:30.671Z,23.20
2022-09-14T12:59:31.515Z,23.15
2022-09-14T13:00:35.561Z,23.09
2022-09-14T13:01:34.287Z,23.05
2022-09-14T13:02:33.978Z,23.00
2022-09-14T13:03:34.365Z,22.98